<?xml version="1.0" encoding="UTF-8" standalone="no" ?>
<gpx xmlns="http://www.topografix.com/GPX/1/1" xmlns:xsi="http://www.w3.org/2001/XMLSchema-instance" xsi:schemaLocation="http://www.topografix.com/GPX/1/1 http://www.topografix.com/GPX/1/1/gpx.xsd" version="1.1" creator="VisuGPX - https://www.visugpx.com">
  <metadata>
    <name>Entrainement ajoupa</name>
    <desc><![CDATA[Circuit Les Paluds entrainement du 14/09/17]]></desc>
  </metadata>
  <trk>
    <name><![CDATA[2017-09-14 18:15:19]]></name>
    <trkseg>
      <trkpt lat="43.83748" lon="4.93722">
        <ele>53.49</ele>
        <time>2017-09-14T15:16:41Z</time>
      </trkpt>
      <trkpt lat="43.83745" lon="4.93718">
        <ele>60.22</ele>
        <time>2017-09-14T15:17:08Z</time>
      </trkpt>
      <trkpt lat="43.83749" lon="4.93712">
        <ele>63.1</ele>
        <time>2017-09-14T15:17:33Z</time>
      </trkpt>
      <trkpt lat="43.8375" lon="4.93715">
        <ele>62.14</ele>
        <time>2017-09-14T15:17:56Z</time>
      </trkpt>
      <trkpt lat="43.83754" lon="4.93709">
        <ele>64.55</ele>
        <time>2017-09-14T15:18:13Z</time>
      </trkpt>
      <trkpt lat="43.83747" lon="4.93707">
        <ele>61.66</ele>
        <time>2017-09-14T15:18:27Z</time>
      </trkpt>
      <trkpt lat="43.83745" lon="4.93709">
        <ele>60.7</ele>
        <time>2017-09-14T15:18:35Z</time>
      </trkpt>
      <trkpt lat="43.83744" lon="4.93729">
        <ele>59.74</ele>
        <time>2017-09-14T15:18:51Z</time>
      </trkpt>
      <trkpt lat="43.83744" lon="4.9373">
        <ele>57.34</ele>
        <time>2017-09-14T15:19:13Z</time>
      </trkpt>
      <trkpt lat="43.83716" lon="4.93744">
        <ele>56.37</ele>
        <time>2017-09-14T15:19:39Z</time>
      </trkpt>
      <trkpt lat="43.83694" lon="4.93751">
        <ele>55.89</ele>
        <time>2017-09-14T15:19:59Z</time>
      </trkpt>
      <trkpt lat="43.83671" lon="4.93756">
        <ele>57.34</ele>
        <time>2017-09-14T15:20:20Z</time>
      </trkpt>
      <trkpt lat="43.83651" lon="4.93759">
        <ele>57.82</ele>
        <time>2017-09-14T15:20:37Z</time>
      </trkpt>
      <trkpt lat="43.83634" lon="4.93759">
        <ele>57.82</ele>
        <time>2017-09-14T15:20:50Z</time>
      </trkpt>
      <trkpt lat="43.83632" lon="4.93739">
        <ele>55.89</ele>
        <time>2017-09-14T15:21:05Z</time>
      </trkpt>
      <trkpt lat="43.83632" lon="4.93706">
        <ele>56.37</ele>
        <time>2017-09-14T15:21:25Z</time>
      </trkpt>
      <trkpt lat="43.83629" lon="4.9367">
        <ele>56.37</ele>
        <time>2017-09-14T15:21:46Z</time>
      </trkpt>
      <trkpt lat="43.83631" lon="4.93642">
        <ele>57.82</ele>
        <time>2017-09-14T15:22:03Z</time>
      </trkpt>
      <trkpt lat="43.83631" lon="4.93608">
        <ele>56.37</ele>
        <time>2017-09-14T15:22:24Z</time>
      </trkpt>
      <trkpt lat="43.83635" lon="4.9358">
        <ele>55.41</ele>
        <time>2017-09-14T15:22:41Z</time>
      </trkpt>
      <trkpt lat="43.83637" lon="4.93544">
        <ele>54.93</ele>
        <time>2017-09-14T15:23:02Z</time>
      </trkpt>
      <trkpt lat="43.83642" lon="4.935">
        <ele>55.41</ele>
        <time>2017-09-14T15:23:28Z</time>
      </trkpt>
      <trkpt lat="43.8364" lon="4.93458">
        <ele>54.45</ele>
        <time>2017-09-14T15:23:52Z</time>
      </trkpt>
      <trkpt lat="43.83635" lon="4.93423">
        <ele>53.01</ele>
        <time>2017-09-14T15:24:12Z</time>
      </trkpt>
      <trkpt lat="43.83621" lon="4.93416">
        <ele>53.01</ele>
        <time>2017-09-14T15:24:24Z</time>
      </trkpt>
      <trkpt lat="43.83592" lon="4.93412">
        <ele>54.93</ele>
        <time>2017-09-14T15:24:47Z</time>
      </trkpt>
      <trkpt lat="43.83569" lon="4.93409">
        <ele>56.86</ele>
        <time>2017-09-14T15:25:05Z</time>
      </trkpt>
      <trkpt lat="43.83545" lon="4.93405">
        <ele>57.82</ele>
        <time>2017-09-14T15:25:24Z</time>
      </trkpt>
      <trkpt lat="43.83523" lon="4.93405">
        <ele>59.26</ele>
        <time>2017-09-14T15:25:42Z</time>
      </trkpt>
      <trkpt lat="43.83512" lon="4.93384">
        <ele>58.78</ele>
        <time>2017-09-14T15:26:01Z</time>
      </trkpt>
      <trkpt lat="43.83518" lon="4.93341">
        <ele>56.37</ele>
        <time>2017-09-14T15:26:27Z</time>
      </trkpt>
      <trkpt lat="43.83516" lon="4.93305">
        <ele>56.37</ele>
        <time>2017-09-14T15:26:48Z</time>
      </trkpt>
      <trkpt lat="43.83503" lon="4.93285">
        <ele>54.45</ele>
        <time>2017-09-14T15:27:02Z</time>
      </trkpt>
      <trkpt lat="43.8349" lon="4.93264">
        <ele>55.41</ele>
        <time>2017-09-14T15:27:18Z</time>
      </trkpt>
      <trkpt lat="43.83486" lon="4.93257">
        <ele>56.86</ele>
        <time>2017-09-14T15:27:23Z</time>
      </trkpt>
      <trkpt lat="43.83476" lon="4.93228">
        <ele>57.82</ele>
        <time>2017-09-14T15:27:41Z</time>
      </trkpt>
      <trkpt lat="43.83468" lon="4.93208">
        <ele>56.37</ele>
        <time>2017-09-14T15:27:53Z</time>
      </trkpt>
      <trkpt lat="43.83454" lon="4.93177">
        <ele>54.93</ele>
        <time>2017-09-14T15:28:12Z</time>
      </trkpt>
      <trkpt lat="43.8345" lon="4.93166">
        <ele>54.45</ele>
        <time>2017-09-14T15:28:19Z</time>
      </trkpt>
      <trkpt lat="43.83449" lon="4.93159">
        <ele>54.45</ele>
        <time>2017-09-14T15:28:22Z</time>
      </trkpt>
      <trkpt lat="43.8343" lon="4.93091">
        <ele>54.45</ele>
        <time>2017-09-14T15:28:41Z</time>
      </trkpt>
      <trkpt lat="43.83412" lon="4.93012">
        <ele>54.45</ele>
        <time>2017-09-14T15:29:02Z</time>
      </trkpt>
      <trkpt lat="43.83396" lon="4.92942">
        <ele>53.97</ele>
        <time>2017-09-14T15:29:22Z</time>
      </trkpt>
      <trkpt lat="43.83388" lon="4.92912">
        <ele>55.41</ele>
        <time>2017-09-14T15:29:38Z</time>
      </trkpt>
      <trkpt lat="43.83386" lon="4.92902">
        <ele>56.37</ele>
        <time>2017-09-14T15:29:44Z</time>
      </trkpt>
      <trkpt lat="43.83386" lon="4.92898">
        <ele>56.37</ele>
        <time>2017-09-14T15:29:47Z</time>
      </trkpt>
      <trkpt lat="43.83388" lon="4.92896">
        <ele>56.37</ele>
        <time>2017-09-14T15:29:48Z</time>
      </trkpt>
      <trkpt lat="43.8339" lon="4.92894">
        <ele>56.37</ele>
        <time>2017-09-14T15:29:49Z</time>
      </trkpt>
      <trkpt lat="43.83391" lon="4.92893">
        <ele>56.37</ele>
        <time>2017-09-14T15:29:50Z</time>
      </trkpt>
      <trkpt lat="43.83394" lon="4.92892">
        <ele>56.37</ele>
        <time>2017-09-14T15:29:51Z</time>
      </trkpt>
      <trkpt lat="43.83415" lon="4.9288">
        <ele>53.97</ele>
        <time>2017-09-14T15:30:02Z</time>
      </trkpt>
      <trkpt lat="43.83427" lon="4.92875">
        <ele>55.41</ele>
        <time>2017-09-14T15:30:10Z</time>
      </trkpt>
      <trkpt lat="43.83429" lon="4.92868">
        <ele>56.37</ele>
        <time>2017-09-14T15:30:13Z</time>
      </trkpt>
      <trkpt lat="43.8343" lon="4.92864">
        <ele>56.86</ele>
        <time>2017-09-14T15:30:14Z</time>
      </trkpt>
      <trkpt lat="43.83431" lon="4.9286">
        <ele>56.86</ele>
        <time>2017-09-14T15:30:15Z</time>
      </trkpt>
      <trkpt lat="43.83431" lon="4.92856">
        <ele>57.34</ele>
        <time>2017-09-14T15:30:16Z</time>
      </trkpt>
      <trkpt lat="43.8343" lon="4.92851">
        <ele>57.34</ele>
        <time>2017-09-14T15:30:17Z</time>
      </trkpt>
      <trkpt lat="43.83429" lon="4.92847">
        <ele>57.82</ele>
        <time>2017-09-14T15:30:18Z</time>
      </trkpt>
      <trkpt lat="43.83408" lon="4.9279">
        <ele>59.26</ele>
        <time>2017-09-14T15:30:35Z</time>
      </trkpt>
      <trkpt lat="43.83396" lon="4.92744">
        <ele>61.18</ele>
        <time>2017-09-14T15:30:51Z</time>
      </trkpt>
      <trkpt lat="43.83393" lon="4.92727">
        <ele>62.14</ele>
        <time>2017-09-14T15:30:57Z</time>
      </trkpt>
      <trkpt lat="43.83393" lon="4.92724">
        <ele>62.14</ele>
        <time>2017-09-14T15:30:58Z</time>
      </trkpt>
      <trkpt lat="43.83392" lon="4.92721">
        <ele>62.62</ele>
        <time>2017-09-14T15:30:59Z</time>
      </trkpt>
      <trkpt lat="43.83369" lon="4.92656">
        <ele>64.07</ele>
        <time>2017-09-14T15:31:18Z</time>
      </trkpt>
      <trkpt lat="43.83362" lon="4.92603">
        <ele>60.22</ele>
        <time>2017-09-14T15:31:33Z</time>
      </trkpt>
      <trkpt lat="43.83358" lon="4.92538">
        <ele>56.37</ele>
        <time>2017-09-14T15:31:53Z</time>
      </trkpt>
      <trkpt lat="43.83354" lon="4.9249">
        <ele>54.93</ele>
        <time>2017-09-14T15:32:07Z</time>
      </trkpt>
      <trkpt lat="43.83342" lon="4.92442">
        <ele>53.97</ele>
        <time>2017-09-14T15:32:21Z</time>
      </trkpt>
      <trkpt lat="43.83338" lon="4.92426">
        <ele>53.49</ele>
        <time>2017-09-14T15:32:26Z</time>
      </trkpt>
      <trkpt lat="43.83338" lon="4.92423">
        <ele>53.49</ele>
        <time>2017-09-14T15:32:27Z</time>
      </trkpt>
      <trkpt lat="43.83338" lon="4.9242">
        <ele>53.49</ele>
        <time>2017-09-14T15:32:28Z</time>
      </trkpt>
      <trkpt lat="43.83337" lon="4.92417">
        <ele>53.01</ele>
        <time>2017-09-14T15:32:29Z</time>
      </trkpt>
      <trkpt lat="43.83337" lon="4.92415">
        <ele>53.01</ele>
        <time>2017-09-14T15:32:30Z</time>
      </trkpt>
      <trkpt lat="43.83336" lon="4.92412">
        <ele>53.01</ele>
        <time>2017-09-14T15:32:31Z</time>
      </trkpt>
      <trkpt lat="43.83335" lon="4.92409">
        <ele>53.01</ele>
        <time>2017-09-14T15:32:32Z</time>
      </trkpt>
      <trkpt lat="43.83334" lon="4.92406">
        <ele>52.53</ele>
        <time>2017-09-14T15:32:33Z</time>
      </trkpt>
      <trkpt lat="43.83333" lon="4.92402">
        <ele>52.53</ele>
        <time>2017-09-14T15:32:34Z</time>
      </trkpt>
      <trkpt lat="43.83332" lon="4.92399">
        <ele>52.53</ele>
        <time>2017-09-14T15:32:35Z</time>
      </trkpt>
      <trkpt lat="43.83321" lon="4.92361">
        <ele>51.09</ele>
        <time>2017-09-14T15:32:46Z</time>
      </trkpt>
      <trkpt lat="43.8331" lon="4.92316">
        <ele>53.97</ele>
        <time>2017-09-14T15:33:00Z</time>
      </trkpt>
      <trkpt lat="43.83292" lon="4.92268">
        <ele>62.14</ele>
        <time>2017-09-14T15:33:13Z</time>
      </trkpt>
      <trkpt lat="43.83261" lon="4.92209">
        <ele>67.43</ele>
        <time>2017-09-14T15:33:31Z</time>
      </trkpt>
      <trkpt lat="43.83236" lon="4.92167">
        <ele>67.43</ele>
        <time>2017-09-14T15:33:45Z</time>
      </trkpt>
      <trkpt lat="43.83202" lon="4.92121">
        <ele>62.62</ele>
        <time>2017-09-14T15:34:02Z</time>
      </trkpt>
      <trkpt lat="43.83172" lon="4.92079">
        <ele>60.7</ele>
        <time>2017-09-14T15:34:18Z</time>
      </trkpt>
      <trkpt lat="43.83152" lon="4.92031">
        <ele>59.74</ele>
        <time>2017-09-14T15:34:33Z</time>
      </trkpt>
      <trkpt lat="43.83138" lon="4.91981">
        <ele>57.82</ele>
        <time>2017-09-14T15:34:48Z</time>
      </trkpt>
      <trkpt lat="43.83129" lon="4.91937">
        <ele>56.86</ele>
        <time>2017-09-14T15:35:01Z</time>
      </trkpt>
      <trkpt lat="43.8312" lon="4.91905">
        <ele>57.82</ele>
        <time>2017-09-14T15:35:10Z</time>
      </trkpt>
      <trkpt lat="43.83119" lon="4.91902">
        <ele>57.82</ele>
        <time>2017-09-14T15:35:11Z</time>
      </trkpt>
      <trkpt lat="43.83119" lon="4.91898">
        <ele>57.82</ele>
        <time>2017-09-14T15:35:12Z</time>
      </trkpt>
      <trkpt lat="43.83106" lon="4.9185">
        <ele>59.26</ele>
        <time>2017-09-14T15:35:26Z</time>
      </trkpt>
      <trkpt lat="43.83106" lon="4.91848">
        <ele>59.26</ele>
        <time>2017-09-14T15:35:27Z</time>
      </trkpt>
      <trkpt lat="43.83096" lon="4.91801">
        <ele>60.22</ele>
        <time>2017-09-14T15:35:41Z</time>
      </trkpt>
      <trkpt lat="43.83076" lon="4.9172">
        <ele>59.74</ele>
        <time>2017-09-14T15:36:04Z</time>
      </trkpt>
      <trkpt lat="43.83066" lon="4.91667">
        <ele>57.82</ele>
        <time>2017-09-14T15:36:22Z</time>
      </trkpt>
      <trkpt lat="43.83061" lon="4.91619">
        <ele>56.86</ele>
        <time>2017-09-14T15:36:37Z</time>
      </trkpt>
      <trkpt lat="43.83056" lon="4.91536">
        <ele>55.41</ele>
        <time>2017-09-14T15:37:00Z</time>
      </trkpt>
      <trkpt lat="43.83055" lon="4.91486">
        <ele>56.37</ele>
        <time>2017-09-14T15:37:12Z</time>
      </trkpt>
      <trkpt lat="43.83059" lon="4.91413">
        <ele>57.82</ele>
        <time>2017-09-14T15:37:31Z</time>
      </trkpt>
      <trkpt lat="43.83075" lon="4.91343">
        <ele>56.37</ele>
        <time>2017-09-14T15:37:51Z</time>
      </trkpt>
      <trkpt lat="43.83093" lon="4.91279">
        <ele>55.41</ele>
        <time>2017-09-14T15:38:10Z</time>
      </trkpt>
      <trkpt lat="43.83115" lon="4.91219">
        <ele>53.97</ele>
        <time>2017-09-14T15:38:29Z</time>
      </trkpt>
      <trkpt lat="43.83146" lon="4.9114">
        <ele>52.05</ele>
        <time>2017-09-14T15:38:53Z</time>
      </trkpt>
      <trkpt lat="43.83156" lon="4.91077">
        <ele>53.49</ele>
        <time>2017-09-14T15:39:11Z</time>
      </trkpt>
      <trkpt lat="43.83157" lon="4.91034">
        <ele>53.01</ele>
        <time>2017-09-14T15:39:28Z</time>
      </trkpt>
      <trkpt lat="43.83161" lon="4.90978">
        <ele>52.05</ele>
        <time>2017-09-14T15:39:43Z</time>
      </trkpt>
      <trkpt lat="43.83163" lon="4.90895">
        <ele>51.09</ele>
        <time>2017-09-14T15:40:05Z</time>
      </trkpt>
      <trkpt lat="43.83169" lon="4.90871">
        <ele>50.61</ele>
        <time>2017-09-14T15:40:17Z</time>
      </trkpt>
      <trkpt lat="43.8317" lon="4.90874">
        <ele>50.13</ele>
        <time>2017-09-14T15:40:21Z</time>
      </trkpt>
      <trkpt lat="43.8317" lon="4.90878">
        <ele>49.65</ele>
        <time>2017-09-14T15:40:24Z</time>
      </trkpt>
      <trkpt lat="43.83171" lon="4.90878">
        <ele>49.65</ele>
        <time>2017-09-14T15:40:25Z</time>
      </trkpt>
      <trkpt lat="43.83172" lon="4.90878">
        <ele>50.13</ele>
        <time>2017-09-14T15:40:26Z</time>
      </trkpt>
      <trkpt lat="43.83173" lon="4.90877">
        <ele>50.13</ele>
        <time>2017-09-14T15:40:27Z</time>
      </trkpt>
      <trkpt lat="43.83174" lon="4.90874">
        <ele>50.13</ele>
        <time>2017-09-14T15:40:28Z</time>
      </trkpt>
      <trkpt lat="43.83174" lon="4.90872">
        <ele>50.13</ele>
        <time>2017-09-14T15:40:29Z</time>
      </trkpt>
      <trkpt lat="43.83174" lon="4.9087">
        <ele>50.13</ele>
        <time>2017-09-14T15:40:30Z</time>
      </trkpt>
      <trkpt lat="43.83167" lon="4.90867">
        <ele>50.61</ele>
        <time>2017-09-14T15:40:35Z</time>
      </trkpt>
      <trkpt lat="43.83162" lon="4.90865">
        <ele>50.61</ele>
        <time>2017-09-14T15:40:40Z</time>
      </trkpt>
      <trkpt lat="43.83161" lon="4.90853">
        <ele>50.13</ele>
        <time>2017-09-14T15:40:45Z</time>
      </trkpt>
      <trkpt lat="43.83161" lon="4.9085">
        <ele>49.65</ele>
        <time>2017-09-14T15:40:46Z</time>
      </trkpt>
      <trkpt lat="43.8316" lon="4.90847">
        <ele>49.65</ele>
        <time>2017-09-14T15:40:47Z</time>
      </trkpt>
      <trkpt lat="43.83161" lon="4.90794">
        <ele>48.2</ele>
        <time>2017-09-14T15:41:04Z</time>
      </trkpt>
      <trkpt lat="43.83141" lon="4.90745">
        <ele>48.2</ele>
        <time>2017-09-14T15:41:20Z</time>
      </trkpt>
      <trkpt lat="43.8311" lon="4.90676">
        <ele>49.16</ele>
        <time>2017-09-14T15:41:43Z</time>
      </trkpt>
      <trkpt lat="43.83111" lon="4.90632">
        <ele>48.68</ele>
        <time>2017-09-14T15:41:56Z</time>
      </trkpt>
      <trkpt lat="43.83112" lon="4.90563">
        <ele>48.2</ele>
        <time>2017-09-14T15:42:16Z</time>
      </trkpt>
      <trkpt lat="43.83113" lon="4.90481">
        <ele>49.65</ele>
        <time>2017-09-14T15:42:40Z</time>
      </trkpt>
      <trkpt lat="43.83115" lon="4.90421">
        <ele>50.61</ele>
        <time>2017-09-14T15:42:59Z</time>
      </trkpt>
      <trkpt lat="43.83117" lon="4.90404">
        <ele>52.05</ele>
        <time>2017-09-14T15:43:14Z</time>
      </trkpt>
      <trkpt lat="43.83119" lon="4.904">
        <ele>51.09</ele>
        <time>2017-09-14T15:43:17Z</time>
      </trkpt>
      <trkpt lat="43.8312" lon="4.90399">
        <ele>51.09</ele>
        <time>2017-09-14T15:43:18Z</time>
      </trkpt>
      <trkpt lat="43.83139" lon="4.90393">
        <ele>51.09</ele>
        <time>2017-09-14T15:43:28Z</time>
      </trkpt>
      <trkpt lat="43.83176" lon="4.90377">
        <ele>51.57</ele>
        <time>2017-09-14T15:43:44Z</time>
      </trkpt>
      <trkpt lat="43.83203" lon="4.90359">
        <ele>51.09</ele>
        <time>2017-09-14T15:43:57Z</time>
      </trkpt>
      <trkpt lat="43.83231" lon="4.90347">
        <ele>50.13</ele>
        <time>2017-09-14T15:44:09Z</time>
      </trkpt>
      <trkpt lat="43.83257" lon="4.90333">
        <ele>49.65</ele>
        <time>2017-09-14T15:44:22Z</time>
      </trkpt>
      <trkpt lat="43.83282" lon="4.9032">
        <ele>51.57</ele>
        <time>2017-09-14T15:44:34Z</time>
      </trkpt>
      <trkpt lat="43.83307" lon="4.90311">
        <ele>54.93</ele>
        <time>2017-09-14T15:44:45Z</time>
      </trkpt>
      <trkpt lat="43.83308" lon="4.90311">
        <ele>54.93</ele>
        <time>2017-09-14T15:44:46Z</time>
      </trkpt>
      <trkpt lat="43.83335" lon="4.90295">
        <ele>59.26</ele>
        <time>2017-09-14T15:45:00Z</time>
      </trkpt>
      <trkpt lat="43.83361" lon="4.90286">
        <ele>59.74</ele>
        <time>2017-09-14T15:45:15Z</time>
      </trkpt>
      <trkpt lat="43.83365" lon="4.90287">
        <ele>55.89</ele>
        <time>2017-09-14T15:45:31Z</time>
      </trkpt>
      <trkpt lat="43.83369" lon="4.90287">
        <ele>55.41</ele>
        <time>2017-09-14T15:45:35Z</time>
      </trkpt>
      <trkpt lat="43.8337" lon="4.90288">
        <ele>54.93</ele>
        <time>2017-09-14T15:45:36Z</time>
      </trkpt>
      <trkpt lat="43.83371" lon="4.90291">
        <ele>54.45</ele>
        <time>2017-09-14T15:45:37Z</time>
      </trkpt>
      <trkpt lat="43.83372" lon="4.90332">
        <ele>53.97</ele>
        <time>2017-09-14T15:45:51Z</time>
      </trkpt>
      <trkpt lat="43.83382" lon="4.90381">
        <ele>49.65</ele>
        <time>2017-09-14T15:46:12Z</time>
      </trkpt>
      <trkpt lat="43.83384" lon="4.90382">
        <ele>49.65</ele>
        <time>2017-09-14T15:46:13Z</time>
      </trkpt>
      <trkpt lat="43.83386" lon="4.90382">
        <ele>49.16</ele>
        <time>2017-09-14T15:46:14Z</time>
      </trkpt>
      <trkpt lat="43.83388" lon="4.90382">
        <ele>49.16</ele>
        <time>2017-09-14T15:46:15Z</time>
      </trkpt>
      <trkpt lat="43.83391" lon="4.90382">
        <ele>49.65</ele>
        <time>2017-09-14T15:46:16Z</time>
      </trkpt>
      <trkpt lat="43.83394" lon="4.90382">
        <ele>49.65</ele>
        <time>2017-09-14T15:46:17Z</time>
      </trkpt>
      <trkpt lat="43.83397" lon="4.90381">
        <ele>49.65</ele>
        <time>2017-09-14T15:46:18Z</time>
      </trkpt>
      <trkpt lat="43.834" lon="4.90381">
        <ele>49.65</ele>
        <time>2017-09-14T15:46:19Z</time>
      </trkpt>
      <trkpt lat="43.83403" lon="4.9038">
        <ele>49.16</ele>
        <time>2017-09-14T15:46:20Z</time>
      </trkpt>
      <trkpt lat="43.83447" lon="4.90371">
        <ele>46.76</ele>
        <time>2017-09-14T15:46:35Z</time>
      </trkpt>
      <trkpt lat="43.83493" lon="4.9036">
        <ele>47.72</ele>
        <time>2017-09-14T15:46:50Z</time>
      </trkpt>
      <trkpt lat="43.83517" lon="4.90354">
        <ele>49.16</ele>
        <time>2017-09-14T15:47:00Z</time>
      </trkpt>
      <trkpt lat="43.83554" lon="4.90347">
        <ele>51.09</ele>
        <time>2017-09-14T15:47:13Z</time>
      </trkpt>
      <trkpt lat="43.83599" lon="4.90335">
        <ele>50.61</ele>
        <time>2017-09-14T15:47:29Z</time>
      </trkpt>
      <trkpt lat="43.83643" lon="4.90322">
        <ele>49.16</ele>
        <time>2017-09-14T15:47:47Z</time>
      </trkpt>
      <trkpt lat="43.83662" lon="4.90317">
        <ele>49.16</ele>
        <time>2017-09-14T15:48:04Z</time>
      </trkpt>
      <trkpt lat="43.83666" lon="4.90319">
        <ele>49.16</ele>
        <time>2017-09-14T15:48:08Z</time>
      </trkpt>
      <trkpt lat="43.83666" lon="4.90321">
        <ele>48.68</ele>
        <time>2017-09-14T15:48:09Z</time>
      </trkpt>
      <trkpt lat="43.83666" lon="4.90323">
        <ele>48.68</ele>
        <time>2017-09-14T15:48:10Z</time>
      </trkpt>
      <trkpt lat="43.83666" lon="4.90324">
        <ele>48.68</ele>
        <time>2017-09-14T15:48:11Z</time>
      </trkpt>
      <trkpt lat="43.83666" lon="4.90327">
        <ele>48.68</ele>
        <time>2017-09-14T15:48:12Z</time>
      </trkpt>
      <trkpt lat="43.83666" lon="4.90329">
        <ele>48.68</ele>
        <time>2017-09-14T15:48:13Z</time>
      </trkpt>
      <trkpt lat="43.83668" lon="4.90355">
        <ele>48.2</ele>
        <time>2017-09-14T15:48:26Z</time>
      </trkpt>
      <trkpt lat="43.83673" lon="4.90396">
        <ele>48.2</ele>
        <time>2017-09-14T15:48:43Z</time>
      </trkpt>
      <trkpt lat="43.83679" lon="4.90444">
        <ele>47.24</ele>
        <time>2017-09-14T15:48:57Z</time>
      </trkpt>
      <trkpt lat="43.83687" lon="4.90506">
        <ele>46.76</ele>
        <time>2017-09-14T15:49:11Z</time>
      </trkpt>
      <trkpt lat="43.83697" lon="4.90576">
        <ele>44.84</ele>
        <time>2017-09-14T15:49:26Z</time>
      </trkpt>
      <trkpt lat="43.83704" lon="4.90634">
        <ele>44.84</ele>
        <time>2017-09-14T15:49:39Z</time>
      </trkpt>
      <trkpt lat="43.8371" lon="4.90686">
        <ele>47.72</ele>
        <time>2017-09-14T15:49:52Z</time>
      </trkpt>
      <trkpt lat="43.8372" lon="4.90754">
        <ele>49.65</ele>
        <time>2017-09-14T15:50:10Z</time>
      </trkpt>
      <trkpt lat="43.83732" lon="4.90818">
        <ele>49.16</ele>
        <time>2017-09-14T15:50:26Z</time>
      </trkpt>
      <trkpt lat="43.83744" lon="4.90874">
        <ele>46.28</ele>
        <time>2017-09-14T15:50:40Z</time>
      </trkpt>
      <trkpt lat="43.83756" lon="4.90928">
        <ele>42.92</ele>
        <time>2017-09-14T15:50:53Z</time>
      </trkpt>
      <trkpt lat="43.83769" lon="4.90986">
        <ele>35.71</ele>
        <time>2017-09-14T15:51:07Z</time>
      </trkpt>
      <trkpt lat="43.83783" lon="4.91058">
        <ele>37.63</ele>
        <time>2017-09-14T15:51:22Z</time>
      </trkpt>
      <trkpt lat="43.83794" lon="4.91115">
        <ele>40.51</ele>
        <time>2017-09-14T15:51:38Z</time>
      </trkpt>
      <trkpt lat="43.83805" lon="4.9116">
        <ele>40.99</ele>
        <time>2017-09-14T15:51:56Z</time>
      </trkpt>
      <trkpt lat="43.83806" lon="4.91169">
        <ele>40.99</ele>
        <time>2017-09-14T15:52:00Z</time>
      </trkpt>
      <trkpt lat="43.83806" lon="4.91171">
        <ele>40.99</ele>
        <time>2017-09-14T15:52:01Z</time>
      </trkpt>
      <trkpt lat="43.83805" lon="4.91172">
        <ele>41.47</ele>
        <time>2017-09-14T15:52:02Z</time>
      </trkpt>
      <trkpt lat="43.838" lon="4.91175">
        <ele>42.44</ele>
        <time>2017-09-14T15:52:05Z</time>
      </trkpt>
      <trkpt lat="43.83767" lon="4.91195">
        <ele>47.24</ele>
        <time>2017-09-14T15:52:24Z</time>
      </trkpt>
      <trkpt lat="43.83718" lon="4.91223">
        <ele>49.65</ele>
        <time>2017-09-14T15:52:44Z</time>
      </trkpt>
      <trkpt lat="43.83662" lon="4.91248">
        <ele>51.57</ele>
        <time>2017-09-14T15:53:01Z</time>
      </trkpt>
      <trkpt lat="43.83616" lon="4.91269">
        <ele>52.05</ele>
        <time>2017-09-14T15:53:16Z</time>
      </trkpt>
      <trkpt lat="43.83576" lon="4.91288">
        <ele>52.05</ele>
        <time>2017-09-14T15:53:32Z</time>
      </trkpt>
      <trkpt lat="43.83544" lon="4.91308">
        <ele>52.53</ele>
        <time>2017-09-14T15:53:47Z</time>
      </trkpt>
      <trkpt lat="43.83511" lon="4.91326">
        <ele>52.53</ele>
        <time>2017-09-14T15:54:05Z</time>
      </trkpt>
      <trkpt lat="43.83476" lon="4.91346">
        <ele>50.61</ele>
        <time>2017-09-14T15:54:21Z</time>
      </trkpt>
      <trkpt lat="43.83442" lon="4.91359">
        <ele>50.61</ele>
        <time>2017-09-14T15:54:40Z</time>
      </trkpt>
      <trkpt lat="43.83407" lon="4.91375">
        <ele>50.61</ele>
        <time>2017-09-14T15:55:03Z</time>
      </trkpt>
      <trkpt lat="43.83374" lon="4.91397">
        <ele>49.65</ele>
        <time>2017-09-14T15:55:24Z</time>
      </trkpt>
      <trkpt lat="43.83364" lon="4.91404">
        <ele>49.65</ele>
        <time>2017-09-14T15:55:31Z</time>
      </trkpt>
      <trkpt lat="43.8336" lon="4.91435">
        <ele>49.16</ele>
        <time>2017-09-14T15:55:44Z</time>
      </trkpt>
      <trkpt lat="43.83362" lon="4.91463">
        <ele>50.13</ele>
        <time>2017-09-14T15:55:57Z</time>
      </trkpt>
      <trkpt lat="43.83366" lon="4.91499">
        <ele>50.61</ele>
        <time>2017-09-14T15:56:15Z</time>
      </trkpt>
      <trkpt lat="43.83369" lon="4.91528">
        <ele>49.65</ele>
        <time>2017-09-14T15:56:29Z</time>
      </trkpt>
      <trkpt lat="43.83374" lon="4.91557">
        <ele>49.16</ele>
        <time>2017-09-14T15:56:43Z</time>
      </trkpt>
      <trkpt lat="43.83389" lon="4.91584">
        <ele>49.16</ele>
        <time>2017-09-14T15:57:00Z</time>
      </trkpt>
      <trkpt lat="43.83416" lon="4.91582">
        <ele>50.13</ele>
        <time>2017-09-14T15:57:17Z</time>
      </trkpt>
      <trkpt lat="43.83451" lon="4.91574">
        <ele>52.53</ele>
        <time>2017-09-14T15:57:39Z</time>
      </trkpt>
      <trkpt lat="43.83454" lon="4.91575">
        <ele>52.53</ele>
        <time>2017-09-14T15:57:42Z</time>
      </trkpt>
      <trkpt lat="43.83457" lon="4.9158">
        <ele>53.01</ele>
        <time>2017-09-14T15:57:46Z</time>
      </trkpt>
      <trkpt lat="43.8346" lon="4.91614">
        <ele>50.61</ele>
        <time>2017-09-14T15:58:00Z</time>
      </trkpt>
      <trkpt lat="43.83463" lon="4.91649">
        <ele>51.57</ele>
        <time>2017-09-14T15:58:15Z</time>
      </trkpt>
      <trkpt lat="43.83466" lon="4.91678">
        <ele>51.57</ele>
        <time>2017-09-14T15:58:28Z</time>
      </trkpt>
      <trkpt lat="43.83468" lon="4.9171">
        <ele>54.45</ele>
        <time>2017-09-14T15:58:42Z</time>
      </trkpt>
      <trkpt lat="43.8347" lon="4.91721">
        <ele>53.97</ele>
        <time>2017-09-14T15:58:47Z</time>
      </trkpt>
      <trkpt lat="43.83471" lon="4.91732">
        <ele>53.97</ele>
        <time>2017-09-14T15:58:52Z</time>
      </trkpt>
      <trkpt lat="43.83474" lon="4.91756">
        <ele>53.97</ele>
        <time>2017-09-14T15:59:02Z</time>
      </trkpt>
      <trkpt lat="43.83466" lon="4.91761">
        <ele>53.49</ele>
        <time>2017-09-14T15:59:08Z</time>
      </trkpt>
      <trkpt lat="43.83464" lon="4.91761">
        <ele>53.49</ele>
        <time>2017-09-14T15:59:09Z</time>
      </trkpt>
      <trkpt lat="43.83433" lon="4.91766">
        <ele>54.93</ele>
        <time>2017-09-14T15:59:20Z</time>
      </trkpt>
      <trkpt lat="43.8339" lon="4.91775">
        <ele>54.93</ele>
        <time>2017-09-14T15:59:33Z</time>
      </trkpt>
      <trkpt lat="43.83386" lon="4.91775">
        <ele>54.93</ele>
        <time>2017-09-14T15:59:34Z</time>
      </trkpt>
      <trkpt lat="43.83383" lon="4.91775">
        <ele>54.45</ele>
        <time>2017-09-14T15:59:35Z</time>
      </trkpt>
      <trkpt lat="43.83333" lon="4.91786">
        <ele>53.01</ele>
        <time>2017-09-14T15:59:50Z</time>
      </trkpt>
      <trkpt lat="43.83279" lon="4.91795">
        <ele>53.49</ele>
        <time>2017-09-14T16:00:07Z</time>
      </trkpt>
      <trkpt lat="43.83219" lon="4.91808">
        <ele>53.49</ele>
        <time>2017-09-14T16:00:26Z</time>
      </trkpt>
      <trkpt lat="43.8317" lon="4.91817">
        <ele>53.01</ele>
        <time>2017-09-14T16:00:40Z</time>
      </trkpt>
      <trkpt lat="43.83135" lon="4.91824">
        <ele>54.45</ele>
        <time>2017-09-14T16:00:58Z</time>
      </trkpt>
      <trkpt lat="43.83105" lon="4.91829">
        <ele>56.37</ele>
        <time>2017-09-14T16:01:16Z</time>
      </trkpt>
      <trkpt lat="43.83098" lon="4.91835">
        <ele>53.49</ele>
        <time>2017-09-14T16:01:28Z</time>
      </trkpt>
      <trkpt lat="43.83096" lon="4.91837">
        <ele>53.49</ele>
        <time>2017-09-14T16:01:29Z</time>
      </trkpt>
      <trkpt lat="43.83095" lon="4.9184">
        <ele>53.01</ele>
        <time>2017-09-14T16:01:30Z</time>
      </trkpt>
      <trkpt lat="43.83094" lon="4.91844">
        <ele>53.01</ele>
        <time>2017-09-14T16:01:31Z</time>
      </trkpt>
      <trkpt lat="43.83095" lon="4.91848">
        <ele>52.53</ele>
        <time>2017-09-14T16:01:32Z</time>
      </trkpt>
      <trkpt lat="43.83096" lon="4.91852">
        <ele>52.53</ele>
        <time>2017-09-14T16:01:33Z</time>
      </trkpt>
      <trkpt lat="43.83108" lon="4.91898">
        <ele>49.65</ele>
        <time>2017-09-14T16:01:44Z</time>
      </trkpt>
      <trkpt lat="43.8312" lon="4.91954">
        <ele>49.16</ele>
        <time>2017-09-14T16:01:55Z</time>
      </trkpt>
      <trkpt lat="43.83133" lon="4.92003">
        <ele>51.09</ele>
        <time>2017-09-14T16:02:06Z</time>
      </trkpt>
      <trkpt lat="43.83149" lon="4.92051">
        <ele>48.2</ele>
        <time>2017-09-14T16:02:17Z</time>
      </trkpt>
      <trkpt lat="43.83184" lon="4.92112">
        <ele>41.95</ele>
        <time>2017-09-14T16:02:32Z</time>
      </trkpt>
      <trkpt lat="43.83225" lon="4.92166">
        <ele>33.3</ele>
        <time>2017-09-14T16:02:47Z</time>
      </trkpt>
      <trkpt lat="43.83258" lon="4.92223">
        <ele>32.34</ele>
        <time>2017-09-14T16:03:01Z</time>
      </trkpt>
      <trkpt lat="43.83278" lon="4.92262">
        <ele>34.26</ele>
        <time>2017-09-14T16:03:12Z</time>
      </trkpt>
      <trkpt lat="43.83295" lon="4.92296">
        <ele>39.07</ele>
        <time>2017-09-14T16:03:24Z</time>
      </trkpt>
      <trkpt lat="43.83305" lon="4.92331">
        <ele>42.44</ele>
        <time>2017-09-14T16:03:32Z</time>
      </trkpt>
      <trkpt lat="43.83318" lon="4.92382">
        <ele>41.47</ele>
        <time>2017-09-14T16:03:44Z</time>
      </trkpt>
      <trkpt lat="43.83332" lon="4.92438">
        <ele>42.92</ele>
        <time>2017-09-14T16:03:55Z</time>
      </trkpt>
      <trkpt lat="43.83345" lon="4.92511">
        <ele>43.4</ele>
        <time>2017-09-14T16:04:11Z</time>
      </trkpt>
      <trkpt lat="43.83345" lon="4.9255">
        <ele>43.88</ele>
        <time>2017-09-14T16:04:20Z</time>
      </trkpt>
      <trkpt lat="43.83348" lon="4.92607">
        <ele>47.24</ele>
        <time>2017-09-14T16:04:32Z</time>
      </trkpt>
      <trkpt lat="43.83355" lon="4.92659">
        <ele>50.13</ele>
        <time>2017-09-14T16:04:44Z</time>
      </trkpt>
      <trkpt lat="43.83371" lon="4.92707">
        <ele>46.76</ele>
        <time>2017-09-14T16:04:57Z</time>
      </trkpt>
      <trkpt lat="43.83386" lon="4.92746">
        <ele>44.84</ele>
        <time>2017-09-14T16:05:08Z</time>
      </trkpt>
      <trkpt lat="43.83397" lon="4.92779">
        <ele>44.36</ele>
        <time>2017-09-14T16:05:19Z</time>
      </trkpt>
      <trkpt lat="43.83418" lon="4.92826">
        <ele>37.63</ele>
        <time>2017-09-14T16:05:33Z</time>
      </trkpt>
      <trkpt lat="43.83427" lon="4.92856">
        <ele>35.71</ele>
        <time>2017-09-14T16:05:46Z</time>
      </trkpt>
      <trkpt lat="43.83427" lon="4.92863">
        <ele>35.71</ele>
        <time>2017-09-14T16:05:49Z</time>
      </trkpt>
      <trkpt lat="43.83425" lon="4.92865">
        <ele>36.19</ele>
        <time>2017-09-14T16:05:50Z</time>
      </trkpt>
      <trkpt lat="43.83422" lon="4.92867">
        <ele>37.15</ele>
        <time>2017-09-14T16:05:51Z</time>
      </trkpt>
      <trkpt lat="43.83391" lon="4.92881">
        <ele>43.4</ele>
        <time>2017-09-14T16:06:04Z</time>
      </trkpt>
      <trkpt lat="43.83385" lon="4.92886">
        <ele>44.84</ele>
        <time>2017-09-14T16:06:08Z</time>
      </trkpt>
      <trkpt lat="43.83384" lon="4.92889">
        <ele>45.32</ele>
        <time>2017-09-14T16:06:09Z</time>
      </trkpt>
      <trkpt lat="43.83382" lon="4.92893">
        <ele>45.8</ele>
        <time>2017-09-14T16:06:10Z</time>
      </trkpt>
      <trkpt lat="43.83382" lon="4.92897">
        <ele>45.8</ele>
        <time>2017-09-14T16:06:11Z</time>
      </trkpt>
      <trkpt lat="43.83383" lon="4.929">
        <ele>46.28</ele>
        <time>2017-09-14T16:06:12Z</time>
      </trkpt>
      <trkpt lat="43.83395" lon="4.92946">
        <ele>49.16</ele>
        <time>2017-09-14T16:06:23Z</time>
      </trkpt>
      <trkpt lat="43.83407" lon="4.92999">
        <ele>49.16</ele>
        <time>2017-09-14T16:06:35Z</time>
      </trkpt>
      <trkpt lat="43.83421" lon="4.93052">
        <ele>47.72</ele>
        <time>2017-09-14T16:06:48Z</time>
      </trkpt>
      <trkpt lat="43.83434" lon="4.93104">
        <ele>43.88</ele>
        <time>2017-09-14T16:07:00Z</time>
      </trkpt>
      <trkpt lat="43.83449" lon="4.93157">
        <ele>41.47</ele>
        <time>2017-09-14T16:07:12Z</time>
      </trkpt>
      <trkpt lat="43.83462" lon="4.932">
        <ele>42.44</ele>
        <time>2017-09-14T16:07:27Z</time>
      </trkpt>
      <trkpt lat="43.83478" lon="4.93242">
        <ele>43.4</ele>
        <time>2017-09-14T16:07:41Z</time>
      </trkpt>
      <trkpt lat="43.83508" lon="4.93301">
        <ele>49.65</ele>
        <time>2017-09-14T16:08:00Z</time>
      </trkpt>
      <trkpt lat="43.83513" lon="4.93335">
        <ele>51.09</ele>
        <time>2017-09-14T16:08:15Z</time>
      </trkpt>
      <trkpt lat="43.83509" lon="4.9337">
        <ele>53.49</ele>
        <time>2017-09-14T16:08:31Z</time>
      </trkpt>
      <trkpt lat="43.83507" lon="4.93398">
        <ele>55.41</ele>
        <time>2017-09-14T16:08:46Z</time>
      </trkpt>
      <trkpt lat="43.83527" lon="4.93413">
        <ele>60.22</ele>
        <time>2017-09-14T16:09:00Z</time>
      </trkpt>
      <trkpt lat="43.83556" lon="4.93415">
        <ele>66.95</ele>
        <time>2017-09-14T16:09:17Z</time>
      </trkpt>
      <trkpt lat="43.83565" lon="4.93418">
        <ele>64.55</ele>
        <time>2017-09-14T16:09:21Z</time>
      </trkpt>
      <trkpt lat="43.83567" lon="4.93417">
        <ele>64.07</ele>
        <time>2017-09-14T16:09:22Z</time>
      </trkpt>
      <trkpt lat="43.83569" lon="4.93418">
        <ele>63.58</ele>
        <time>2017-09-14T16:09:23Z</time>
      </trkpt>
      <trkpt lat="43.83578" lon="4.93417">
        <ele>63.58</ele>
        <time>2017-09-14T16:09:28Z</time>
      </trkpt>
      <trkpt lat="43.8358" lon="4.93417">
        <ele>63.58</ele>
        <time>2017-09-14T16:09:29Z</time>
      </trkpt>
      <trkpt lat="43.83581" lon="4.93417">
        <ele>64.07</ele>
        <time>2017-09-14T16:09:30Z</time>
      </trkpt>
      <trkpt lat="43.83605" lon="4.93418">
        <ele>67.91</ele>
        <time>2017-09-14T16:09:45Z</time>
      </trkpt>
      <trkpt lat="43.83627" lon="4.93421">
        <ele>70.31</ele>
        <time>2017-09-14T16:09:59Z</time>
      </trkpt>
      <trkpt lat="43.83633" lon="4.9343">
        <ele>65.99</ele>
        <time>2017-09-14T16:10:05Z</time>
      </trkpt>
      <trkpt lat="43.83633" lon="4.93433">
        <ele>65.51</ele>
        <time>2017-09-14T16:10:06Z</time>
      </trkpt>
      <trkpt lat="43.83634" lon="4.93468">
        <ele>62.14</ele>
        <time>2017-09-14T16:10:17Z</time>
      </trkpt>
      <trkpt lat="43.8363" lon="4.93512">
        <ele>61.66</ele>
        <time>2017-09-14T16:10:29Z</time>
      </trkpt>
      <trkpt lat="43.83622" lon="4.9356">
        <ele>65.99</ele>
        <time>2017-09-14T16:10:44Z</time>
      </trkpt>
      <trkpt lat="43.83617" lon="4.93599">
        <ele>65.99</ele>
        <time>2017-09-14T16:10:59Z</time>
      </trkpt>
      <trkpt lat="43.83616" lon="4.93628">
        <ele>65.99</ele>
        <time>2017-09-14T16:11:13Z</time>
      </trkpt>
      <trkpt lat="43.83616" lon="4.9364">
        <ele>64.55</ele>
        <time>2017-09-14T16:11:19Z</time>
      </trkpt>
      <trkpt lat="43.83617" lon="4.93642">
        <ele>64.55</ele>
        <time>2017-09-14T16:11:20Z</time>
      </trkpt>
      <trkpt lat="43.83617" lon="4.93645">
        <ele>64.55</ele>
        <time>2017-09-14T16:11:21Z</time>
      </trkpt>
      <trkpt lat="43.83618" lon="4.93647">
        <ele>64.55</ele>
        <time>2017-09-14T16:11:22Z</time>
      </trkpt>
      <trkpt lat="43.83619" lon="4.93678">
        <ele>61.18</ele>
        <time>2017-09-14T16:11:36Z</time>
      </trkpt>
      <trkpt lat="43.83623" lon="4.93715">
        <ele>57.82</ele>
        <time>2017-09-14T16:11:54Z</time>
      </trkpt>
      <trkpt lat="43.83625" lon="4.93739">
        <ele>55.89</ele>
        <time>2017-09-14T16:12:05Z</time>
      </trkpt>
      <trkpt lat="43.83625" lon="4.93741">
        <ele>55.89</ele>
        <time>2017-09-14T16:12:06Z</time>
      </trkpt>
      <trkpt lat="43.83637" lon="4.93764">
        <ele>58.78</ele>
        <time>2017-09-14T16:12:20Z</time>
      </trkpt>
      <trkpt lat="43.83674" lon="4.93762">
        <ele>61.18</ele>
        <time>2017-09-14T16:12:43Z</time>
      </trkpt>
      <trkpt lat="43.83705" lon="4.93757">
        <ele>62.62</ele>
        <time>2017-09-14T16:13:03Z</time>
      </trkpt>
      <trkpt lat="43.83736" lon="4.93743">
        <ele>60.22</ele>
        <time>2017-09-14T16:13:23Z</time>
      </trkpt>
      <trkpt lat="43.83758" lon="4.93724">
        <ele>59.74</ele>
        <time>2017-09-14T16:13:41Z</time>
      </trkpt>
      <trkpt lat="43.83759" lon="4.93718">
        <ele>59.74</ele>
        <time>2017-09-14T16:13:44Z</time>
      </trkpt>
      <trkpt lat="43.83758" lon="4.93714">
        <ele>59.74</ele>
        <time>2017-09-14T16:13:46Z</time>
      </trkpt>
      <trkpt lat="43.83751" lon="4.9371">
        <ele>62.62</ele>
        <time>2017-09-14T16:13:59Z</time>
      </trkpt>
      <trkpt lat="43.83749" lon="4.93712">
        <ele>60.22</ele>
        <time>2017-09-14T16:14:12Z</time>
      </trkpt>
      <trkpt lat="43.83755" lon="4.93711">
        <ele>58.3</ele>
        <time>2017-09-14T16:14:34Z</time>
      </trkpt>
      <trkpt lat="43.83753" lon="4.93715">
        <ele>59.74</ele>
        <time>2017-09-14T16:14:54Z</time>
      </trkpt>
      <trkpt lat="43.83753" lon="4.93714">
        <ele>60.22</ele>
        <time>2017-09-14T16:15:16Z</time>
      </trkpt>
    </trkseg>
  </trk>
</gpx>